Time;durP1;ratioP1;P1;durP2;ratioP2;P2;SDS_P1;SDS_P2;PMS_P1;PMS_P2;Temp;Humidity;BMP_temperature;BMP_pressure;BME280_temperature;BME280_humidity;BME280_pressure;Samples;Min_cycle;Max_cycle;Signal;HPM_P1;HPM_P2
2022/06/20 00:02:22;;;;;;;9.52;1.65;;;;;;;16.01;67.59;101409.91;5029430;28;20045;-60
2022/06/20 00:04:49;;;;;;;12.30;2.50;;;;;;;15.95;67.99;101403.75;5029494;28;20142;-54
2022/06/20 00:07:15;;;;;;;12.40;2.00;;;;;;;15.96;67.73;101401.22;5032036;28;22025;-63
2022/06/20 00:09:40;;;;;;;13.38;2.00;;;;;;;15.91;68.01;101410.66;5029818;28;20080;-61
2022/06/20 00:12:07;;;;;;;10.70;1.67;;;;;;;15.88;67.89;101415.78;5027390;28;20679;-60
2022/06/20 00:14:33;;;;;;;8.38;1.80;;;;;;;15.85;67.48;101404.50;5027928;28;20473;-63
2022/06/20 00:16:58;;;;;;;6.55;1.50;;;;;;;15.83;67.31;101396.66;5030358;28;20025;-60
2022/06/20 00:19:24;;;;;;;6.63;1.50;;;;;;;15.84;67.69;101394.97;5030685;28;20040;-62
2022/06/20 00:21:49;;;;;;;10.90;1.85;;;;;;;15.83;68.15;101404.44;5029817;28;20630;-54
2022/06/20 00:24:15;;;;;;;14.55;1.92;;;;;;;15.82;67.98;101390.63;5030162;28;20033;-62
2022/06/20 00:26:40;;;;;;;9.65;1.80;;;;;;;15.80;67.86;101394.06;5029600;28;20116;-63
2022/06/20 00:29:08;;;;;;;8.93;1.77;;;;;;;15.81;67.64;101411.34;5011437;28;20029;-58
2022/06/20 00:31:35;;;;;;;8.00;1.73;;;;;;;15.76;67.63;101424.22;5029945;28;20124;-54
2022/06/20 00:34:01;;;;;;;10.93;1.70;;;;;;;15.75;68.03;101442.38;5026639;28;20033;-59
2022/06/20 00:36:27;;;;;;;7.30;1.60;;;;;;;15.75;68.25;101452.75;5030832;28;20032;-63
2022/06/20 00:38:54;;;;;;;9.60;2.08;;;;;;;15.77;68.18;101466.59;5032190;28;20421;-62
2022/06/20 00:41:24;;;;;;;8.13;2.00;;;;;;;15.75;68.52;101476.06;5032983;28;20037;-61
2022/06/20 00:43:52;;;;;;;7.32;1.60;;;;;;;15.76;67.84;101496.84;5029486;28;20024;-55
2022/06/20 00:46:22;;;;;;;10.25;1.60;;;;;;;15.82;68.11;101522.00;5028125;28;20037;-59
2022/06/20 00:48:55;;;;;;;7.90;1.42;;;;;;;15.81;68.45;101538.41;5031355;28;20502;-55
2022/06/20 00:51:51;;;;;;;12.43;1.75;;;;;;;15.87;68.19;101542.84;5029655;28;20029;-62
2022/06/20 00:54:34;;;;;;;8.45;1.92;;;;;;;15.79;68.59;101561.72;5028623;28;20447;-61
2022/06/20 00:57:27;;;;;;;10.05;1.83;;;;;;;15.86;68.79;101596.44;5024488;28;20052;-57
2022/06/20 01:00:08;;;;;;;8.60;1.52;;;;;;;15.88;68.60;101615.47;5021194;28;20432;-59
2022/06/20 01:02:37;;;;;;;10.43;1.70;;;;;;;15.86;68.61;101627.53;5028255;28;20031;-60
2022/06/20 01:05:09;;;;;;;11.70;1.70;;;;;;;15.85;69.04;101618.03;5026481;28;20560;-56
2022/06/20 01:08:23;;;;;;;10.75;1.75;;;;;;;15.95;68.25;101599.16;5028761;28;20029;-60
2022/06/20 01:10:58;;;;;;;8.65;1.70;;;;;;;15.86;68.53;101580.00;4941247;28;20043;-59
2022/06/20 01:13:25;;;;;;;10.50;1.77;;;;;;;15.80;68.55;101566.06;5025008;28;20044;-62
2022/06/20 01:15:53;;;;;;;4.57;1.35;;;;;;;15.82;68.93;101555.72;5028769;28;20683;-63
2022/06/20 01:18:24;;;;;;;11.20;2.00;;;;;;;15.80;69.50;101544.44;5027839;28;20022;-57
2022/06/20 01:20:51;;;;;;;9.15;1.58;;;;;;;15.80;69.11;101547.03;5025899;28;20060;-60
2022/06/20 01:23:35;;;;;;;7.60;1.75;;;;;;;15.83;69.01;101549.66;5029422;28;20155;-60
2022/06/20 01:26:18;;;;;;;7.38;1.80;;;;;;;15.87;68.95;101540.25;5029273;28;20037;-60
2022/06/20 01:28:47;;;;;;;8.95;2.10;;;;;;;15.78;69.06;101520.22;5025948;28;20040;-61
2022/06/20 01:31:14;;;;;;;;;;;;;;;15.99;68.02;101520.56;5030112;28;20420;-58
2022/06/20 01:33:40;;;;;;;7.60;1.80;;;;;;;15.78;68.89;101504.66;5029461;28;20075;-57
2022/06/20 01:38:50;;;;;;;12.15;2.53;;;;;;;15.72;68.79;101514.94;5028471;28;20111;-59
2022/06/20 01:44:04;;;;;;;9.25;1.83;;;;;;;15.70;69.44;101512.28;5031664;28;20047;-61
2022/06/20 01:46:32;;;;;;;13.50;2.03;;;;;;;15.64;69.90;101499.22;5027515;28;20481;-54
2022/06/20 01:49:03;;;;;;;9.02;1.80;;;;;;;15.69;70.41;101491.53;5026605;28;20036;-60
2022/06/20 01:51:58;;;;;;;8.75;1.77;;;;;;;15.69;69.72;101487.22;5027892;28;20028;-58
2022/06/20 01:54:28;;;;;;;9.82;1.83;;;;;;;15.60;70.82;101481.84;5022119;28;20071;-60
2022/06/20 01:56:53;;;;;;;9.70;1.98;;;;;;;15.58;71.08;101475.75;5029665;28;20017;-58
2022/06/20 01:59:35;;;;;;;8.93;2.00;;;;;;;15.65;70.49;101466.38;5026481;28;20033;-56
2022/06/20 02:02:02;;;;;;;11.23;2.10;;;;;;;15.52;70.78;101462.69;5026404;28;20091;-53
2022/06/20 02:04:33;;;;;;;9.30;2.00;;;;;;;15.54;71.05;101466.19;5025203;28;20029;-61
2022/06/20 02:07:01;;;;;;;12.45;2.25;;;;;;;15.49;71.27;101470.41;5031681;28;20041;-60
2022/06/20 02:09:27;;;;;;;11.40;1.70;;;;;;;15.49;71.26;101471.28;5025923;28;20581;-51
2022/06/20 02:11:53;;;;;;;7.90;1.60;;;;;;;15.47;71.29;101474.69;5025677;28;20489;-59
2022/06/20 02:14:23;;;;;;;10.60;1.45;;;;;;;15.48;71.21;101466.97;5029403;28;20115;-57
2022/06/20 02:16:58;;;;;;;8.23;2.15;;;;;;;15.51;70.84;101456.63;5030141;28;20029;-61
2022/06/20 02:19:34;;;;;;;6.40;1.42;;;;;;;15.47;70.97;101447.06;5027143;28;20107;-57
2022/06/20 02:22:06;;;;;;;9.63;1.73;;;;;;;15.40;71.22;101433.97;5031103;28;20021;-60
2022/06/20 02:24:35;;;;;;;8.52;1.80;;;;;;;15.39;71.24;101429.63;5025644;28;20374;-57
2022/06/20 02:27:03;;;;;;;13.35;2.35;;;;;;;15.39;70.29;101419.25;5030810;28;20033;-57
2022/06/20 02:29:30;;;;;;;7.53;1.63;;;;;;;15.29;70.21;101420.84;5028238;28;20418;-60
2022/06/20 02:31:59;;;;;;;7.50;1.98;;;;;;;15.28;70.51;101419.06;5027058;28;20032;-58
2022/06/20 02:34:28;;;;;;;8.95;1.90;;;;;;;15.31;70.60;101413.09;5026201;28;20251;-57
2022/06/20 02:36:56;;;;;;;7.65;1.50;;;;;;;15.28;70.33;101419.94;5026010;28;20050;-59
2022/06/20 02:39:21;;;;;;;8.90;1.90;;;;;;;15.21;69.60;101412.91;5031248;28;20124;-56
2022/06/20 02:41:54;;;;;;;8.77;1.50;;;;;;;15.24;70.58;101425.06;5011532;28;20454;-60
2022/06/20 02:44:21;;;;;;;11.05;2.03;;;;;;;15.24;70.47;101423.34;5026895;28;20021;-55
2022/06/20 02:46:49;;;;;;;8.98;1.65;;;;;;;15.24;70.29;101418.16;5028123;28;20549;-59
2022/06/20 02:49:19;;;;;;;9.75;1.85;;;;;;;15.26;70.08;101415.59;5024147;28;20508;-56
2022/06/20 02:51:49;;;;;;;7.72;1.77;;;;;;;15.22;70.12;101404.28;5025127;28;20056;-60
2022/06/20 02:54:16;;;;;;;10.68;1.80;;;;;;;15.23;69.89;101397.41;5025165;28;20052;-53
2022/06/20 02:56:51;;;;;;;5.43;1.38;;;;;;;15.23;70.01;101397.41;5026759;28;20033;-51
2022/06/20 02:59:29;;;;;;;10.93;1.92;;;;;;;15.22;69.94;101386.16;5029629;28;20029;-60
2022/06/20 03:02:09;;;;;;;10.13;1.70;;;;;;;15.24;69.90;101378.44;5027770;28;20083;-55
2022/06/20 03:04:37;;;;;;;7.90;1.63;;;;;;;15.10;69.98;101369.53;5027296;28;20390;-59
2022/06/20 03:07:11;;;;;;;8.32;1.60;;;;;;;15.15;70.10;101373.06;5031030;28;20099;-61
2022/06/20 03:09:41;;;;;;;9.13;1.50;;;;;;;15.12;69.91;101367.84;5028085;28;20067;-61
2022/06/20 03:12:08;;;;;;;8.68;1.73;;;;;;;15.08;69.93;101356.56;5027379;28;20391;-54
2022/06/20 03:14:46;;;;;;;9.18;1.70;;;;;;;15.10;69.96;101357.44;5024082;28;20118;-57
2022/06/20 03:17:16;;;;;;;6.88;1.35;;;;;;;15.06;70.04;101352.22;5024864;28;20029;-57
2022/06/20 03:19:46;;;;;;;6.55;1.75;;;;;;;15.06;69.99;101366.03;5029637;28;20041;-60
2022/06/20 03:22:16;;;;;;;6.85;1.70;;;;;;;15.05;70.41;101356.53;5031681;28;20103;-60
2022/06/20 03:24:43;;;;;;;8.18;1.63;;;;;;;15.08;70.51;101366.03;5034483;28;20041;-57
2022/06/20 03:27:16;;;;;;;7.93;1.50;;;;;;;15.12;70.18;101373.03;5033323;28;20111;-59
2022/06/20 03:29:44;;;;;;;6.03;1.50;;;;;;;15.09;70.50;101381.59;5027936;28;20038;-60
2022/06/20 03:32:10;;;;;;;10.85;1.95;;;;;;;15.11;70.81;101390.31;5030284;28;20068;-59
2022/06/20 03:34:35;;;;;;;8.85;1.50;;;;;;;15.09;70.77;101411.81;5028185;28;20055;-60
2022/06/20 03:37:02;;;;;;;10.57;1.75;;;;;;;15.11;70.95;101412.75;5033675;28;20040;-61
2022/06/20 03:39:29;;;;;;;9.13;1.80;;;;;;;15.07;71.57;101413.53;5030279;28;20029;-59
2022/06/20 03:41:54;;;;;;;8.20;1.67;;;;;;;15.15;71.54;101406.75;5030076;28;20034;-56
2022/06/20 03:45:00;;;;;;;8.32;1.65;;;;;;;15.26;70.84;101403.50;5030580;28;20045;-58
2022/06/20 03:47:33;;;;;;;7.55;1.80;;;;;;;15.17;72.64;101405.94;4919926;29;20036;-52
2022/06/20 03:50:07;;;;;;;8.90;1.85;;;;;;;15.20;72.73;101411.16;4922357;29;20090;-57
2022/06/20 03:52:47;;;;;;;11.63;1.70;;;;;;;15.20;72.90;101424.13;4982055;28;20034;-59
2022/06/20 03:55:24;;;;;;;7.63;1.50;;;;;;;15.24;73.17;101436.28;5028797;28;20048;-60
2022/06/20 03:58:05;;;;;;;10.30;1.83;;;;;;;15.24;72.97;101445.78;5030689;28;20013;-58
2022/06/20 04:00:49;;;;;;;8.73;1.73;;;;;;;15.28;72.83;101450.16;5026683;28;20087;-58
2022/06/20 04:03:25;;;;;;;8.15;2.22;;;;;;;15.25;73.04;101450.13;5027882;28;20068;-55
2022/06/20 04:05:57;;;;;;;6.00;1.67;;;;;;;15.25;73.09;101455.31;5031807;28;20634;-56
2022/06/20 04:10:57;;;;;;;10.68;2.03;;;;;;;15.26;73.24;101457.03;5026761;28;20382;-60
2022/06/20 04:11:20;;;;;;;6.57;1.80;;;;;;;15.26;73.02;101459.63;5028549;28;20044;-56
2022/06/20 04:14:02;;;;;;;7.00;1.73;;;;;;;15.32;72.69;101457.16;5031230;28;20086;-60
2022/06/20 04:16:36;;;;;;;5.22;1.52;;;;;;;15.31;72.78;101459.72;5026557;28;20032;-59
2022/06/20 04:19:05;;;;;;;7.53;1.58;;;;;;;15.29;72.64;101467.47;5030640;28;20033;-57
2022/06/20 04:21:39;;;;;;;6.97;1.87;;;;;;;15.34;72.92;101471.00;5027188;28;20029;-49
2022/06/20 04:24:15;;;;;;;8.93;1.60;;;;;;;15.33;72.81;101476.16;5030698;28;20446;-58
2022/06/20 04:26:51;;;;;;;9.63;1.75;;;;;;;15.32;72.84;101477.88;5030341;28;20033;-52
2022/06/20 04:29:31;;;;;;;6.53;1.63;;;;;;;15.32;72.68;101474.41;5030012;28;20508;-57
2022/06/20 04:31:58;;;;;;;4.70;1.55;;;;;;;15.29;73.44;101480.44;5028078;28;20494;-58
2022/06/20 04:34:45;;;;;;;7.55;1.67;;;;;;;15.39;72.75;101490.09;5030630;28;20109;-59
2022/06/20 04:37:35;;;;;;;9.52;1.70;;;;;;;15.44;72.63;101490.19;5028480;28;20029;-53
2022/06/20 04:40:12;;;;;;;8.25;1.65;;;;;;;15.41;72.92;101484.94;5027768;28;20032;-59
2022/06/20 04:42:44;;;;;;;7.25;1.60;;;;;;;15.39;73.18;101484.91;5026830;28;20037;-56
2022/06/20 04:45:12;;;;;;;7.60;1.77;;;;;;;15.37;73.69;101490.94;5030022;28;20025;-58
2022/06/20 04:47:56;;;;;;;9.33;1.80;;;;;;;15.40;73.29;101499.63;5025510;28;20061;-57
2022/06/20 04:50:25;;;;;;;8.90;2.10;;;;;;;15.43;74.14;101491.91;5028582;28;20108;-56
2022/06/20 04:52:55;;;;;;;7.72;1.73;;;;;;;15.41;74.61;101503.97;5030425;28;20488;-59
2022/06/20 04:55:23;;;;;;;9.45;1.83;;;;;;;15.44;74.25;101508.34;5024015;28;20025;-59
2022/06/20 04:57:50;;;;;;;9.70;1.77;;;;;;;15.43;74.40;101510.06;5027653;28;20033;-57
2022/06/20 05:00:20;;;;;;;8.25;1.83;;;;;;;15.49;74.60;101510.16;5028666;28;20129;-59
2022/06/20 05:02:48;;;;;;;8.40;2.15;;;;;;;15.47;74.02;101501.50;5028121;28;20045;-59
2022/06/20 05:05:21;;;;;;;9.25;1.77;;;;;;;15.53;73.97;101508.47;5029822;28;20025;-59
2022/06/20 05:07:48;;;;;;;9.50;1.60;;;;;;;15.50;73.47;101504.13;5029420;28;20117;-58
2022/06/20 05:10:25;;;;;;;6.57;1.40;;;;;;;15.53;72.74;101509.38;5029850;28;20140;-58
2022/06/20 05:13:04;;;;;;;8.70;1.67;;;;;;;15.40;72.62;101512.56;5028328;28;20029;-60
2022/06/20 05:15:29;;;;;;;;;;;;;;;15.55;71.87;101512.00;5026771;28;20139;-59
2022/06/20 05:17:57;;;;;;;10.80;1.60;;;;;;;15.48;72.77;101517.94;5028934;28;20046;-56
2022/06/20 05:20:28;;;;;;;5.30;1.23;;;;;;;15.46;73.26;101520.47;5026348;28;20041;-56
2022/06/20 05:23:20;;;;;;;9.80;1.92;;;;;;;15.48;72.90;101512.75;5026438;28;20033;-58
2022/06/20 05:25:45;;;;;;;10.05;1.88;;;;;;;15.49;71.79;101520.53;5027779;28;20052;-54
2022/06/20 05:28:18;;;;;;;10.13;1.98;;;;;;;15.49;72.93;101527.44;5028938;28;20040;-59
2022/06/20 05:30:45;;;;;;;7.82;1.98;;;;;;;15.47;72.83;101531.69;5031355;28;20024;-51
2022/06/20 05:33:25;;;;;;;7.68;2.30;;;;;;;15.48;72.65;101534.34;5025881;28;20379;-59
2022/06/20 05:35:57;;;;;;;8.48;1.75;;;;;;;15.46;72.76;101533.41;5029345;28;20083;-54
2022/06/20 05:38:32;;;;;;;9.45;1.80;;;;;;;15.50;72.63;101535.25;5026419;28;20116;-61
2022/06/20 05:41:00;;;;;;;6.60;1.55;;;;;;;15.50;73.44;101522.28;5026085;28;20508;-60
2022/06/20 05:43:29;;;;;;;8.73;2.05;;;;;;;15.54;73.12;101526.69;5024847;28;20385;-60
2022/06/20 05:45:58;;;;;;;6.97;1.98;;;;;;;15.52;73.31;101527.47;5026995;28;20525;-51
2022/06/20 05:48:30;;;;;;;7.10;1.67;;;;;;;15.56;72.85;101522.38;5027989;28;20032;-58
2022/06/20 05:51:01;;;;;;;8.18;2.05;;;;;;;15.61;73.18;101519.00;5013149;28;20039;-60
2022/06/20 05:53:42;;;;;;;9.15;2.00;;;;;;;15.63;72.95;101522.53;5024564;28;20021;-58
2022/06/20 05:56:20;;;;;;;5.72;1.80;;;;;;;15.60;73.31;101520.75;5027501;28;20074;-52
2022/06/20 05:58:47;;;;;;;8.40;1.92;;;;;;;15.63;72.80;101527.72;5022776;28;20037;-54
2022/06/20 06:01:19;;;;;;;7.22;2.00;;;;;;;15.62;72.55;101528.53;5022842;28;20065;-57
2022/06/20 06:03:54;;;;;;;5.95;1.60;;;;;;;15.66;73.08;101532.97;5027949;28;20029;-54
2022/06/20 06:06:25;;;;;;;7.05;1.70;;;;;;;15.69;72.40;101536.47;5024240;28;20091;-59
2022/06/20 06:09:01;;;;;;;7.03;1.67;;;;;;;15.73;72.62;101547.78;5025510;28;20024;-53
2022/06/20 06:11:41;;;;;;;5.88;1.55;;;;;;;15.73;71.73;101550.38;5022395;28;20758;-60
2022/06/20 06:14:23;;;;;;;8.85;1.98;;;;;;;15.79;72.11;101542.72;5025057;28;20067;-60
2022/06/20 06:16:55;;;;;;;6.43;1.60;;;;;;;15.78;72.21;101549.63;5026302;28;20056;-59
2022/06/20 06:19:39;;;;;;;8.02;1.83;;;;;;;15.74;71.06;101544.34;5024028;28;20069;-57
2022/06/20 06:22:35;;;;;;;6.57;1.55;;;;;;;15.80;70.97;101558.28;5024062;28;20560;-56
2022/06/20 06:25:14;;;;;;;4.90;1.75;;;;;;;15.80;71.01;101549.63;5021876;28;20489;-59
2022/06/20 06:27:40;;;;;;;5.95;1.65;;;;;;;15.82;71.33;101553.13;5023325;28;20136;-59
2022/06/20 06:30:17;;;;;;;7.90;1.83;;;;;;;15.96;71.13;101548.19;5024208;28;20033;-56
2022/06/20 06:33:09;;;;;;;7.50;1.60;;;;;;;16.02;70.65;101545.69;5027805;28;20436;-60
2022/06/20 06:35:43;;;;;;;7.53;1.70;;;;;;;16.09;69.56;101556.19;5025673;28;20393;-58
2022/06/20 06:38:13;;;;;;;10.45;1.60;;;;;;;16.16;70.60;101546.78;5026183;28;20070;-60
2022/06/20 06:40:46;;;;;;;8.18;1.95;;;;;;;16.24;69.27;101552.97;5004640;28;20061;-59
2022/06/20 06:43:28;;;;;;;4.63;1.30;;;;;;;16.23;68.71;101551.22;5020891;28;20040;-60
2022/06/20 06:45:57;;;;;;;5.90;1.40;;;;;;;16.18;68.54;101552.88;5025304;28;20018;-59
2022/06/20 06:48:31;;;;;;;7.32;1.60;;;;;;;16.31;68.87;101557.38;5025670;28;20037;-60
2022/06/20 06:51:22;;;;;;;6.82;1.63;;;;;;;16.44;68.48;101561.06;5027044;28;20022;-60
2022/06/20 06:53:59;;;;;;;5.47;1.70;;;;;;;16.49;68.00;101564.59;5004982;28;20025;-56
2022/06/20 06:56:37;;;;;;;7.15;1.60;;;;;;;16.62;67.53;101573.44;5026870;28;20017;-56
2022/06/20 06:59:16;;;;;;;5.93;1.70;;;;;;;16.68;67.53;101567.44;5030644;28;20884;-59
2022/06/20 07:01:46;;;;;;;9.25;1.95;;;;;;;16.75;67.58;101564.16;5031595;28;20650;-55
2022/06/20 07:04:29;;;;;;;8.20;1.75;;;;;;;16.79;66.98;101574.56;5028188;28;21568;-56
2022/06/20 07:06:59;;;;;;;5.50;1.70;;;;;;;16.91;66.23;101580.78;5031148;28;20506;-51
2022/06/20 07:09:33;;;;;;;5.63;1.85;;;;;;;17.10;66.85;101575.84;5030456;28;20033;-57
2022/06/20 07:12:05;;;;;;;6.47;1.70;;;;;;;17.18;65.80;101580.28;5023192;28;20033;-62
2022/06/20 07:14:35;;;;;;;12.05;1.55;;;;;;;17.24;64.57;101589.03;5029186;28;20030;-60
2022/06/20 07:17:29;;;;;;;7.03;1.75;;;;;;;17.32;64.18;101589.13;5027834;28;20747;-62
2022/06/20 07:19:56;;;;;;;7.18;1.50;;;;;;;17.45;63.39;101592.72;5022205;28;20029;-60
2022/06/20 07:22:23;;;;;;;7.43;1.80;;;;;;;17.39;61.89;101586.59;5023708;28;20064;-62
2022/06/20 07:24:50;;;;;;;5.45;1.70;;;;;;;17.55;61.50;101590.25;5015923;28;20048;-53
2022/06/20 07:27:23;;;;;;;8.88;2.00;;;;;;;17.64;62.17;101592.06;5031819;28;20497;-60
2022/06/20 07:29:55;;;;;;;9.70;2.03;;;;;;;17.73;62.08;101599.16;5030669;28;20505;-59
2022/06/20 07:32:29;;;;;;;9.88;1.80;;;;;;;17.86;62.62;101593.22;5024280;28;20021;-54
2022/06/20 07:34:59;;;;;;;5.97;1.95;;;;;;;17.90;61.37;101597.59;5035662;28;20033;-56
2022/06/20 07:37:31;;;;;;;10.43;2.13;;;;;;;17.97;61.21;101596.78;5032637;28;20021;-59
2022/06/20 07:40:07;;;;;;;9.20;2.13;;;;;;;17.99;60.18;101602.88;5032401;28;20050;-56
2022/06/20 07:42:35;;;;;;;5.78;1.75;;;;;;;18.06;59.80;101593.38;5035331;28;20037;-50
2022/06/20 07:45:26;;;;;;;7.10;1.88;;;;;;;18.15;58.29;101589.16;5035106;28;20066;-51
2022/06/20 07:48:04;;;;;;;8.68;1.60;;;;;;;18.28;58.17;101592.72;5031883;28;20599;-58
2022/06/20 07:50:38;;;;;;;4.65;1.50;;;;;;;18.22;57.52;101588.34;5033787;28;20071;-53
2022/06/20 07:53:38;;;;;;;5.70;1.60;;;;;;;18.27;57.90;101598.78;5033563;28;20052;-64
2022/06/20 07:56:11;;;;;;;5.47;1.80;;;;;;;18.34;57.90;101597.09;5033038;28;20026;-56
2022/06/20 07:58:41;;;;;;;6.18;2.05;;;;;;;18.38;55.86;101597.16;5030272;28;20397;-58
2022/06/20 08:01:38;;;;;;;5.93;1.92;;;;;;;18.49;56.77;101607.63;5037241;28;20024;-54
2022/06/20 08:04:09;;;;;;;5.63;1.70;;;;;;;18.40;55.81;101605.84;5032904;28;20033;-50
2022/06/20 08:06:42;;;;;;;4.95;1.70;;;;;;;18.29;53.38;101607.47;5031060;28;20548;-58
2022/06/20 08:09:18;;;;;;;6.22;1.85;;;;;;;18.34;54.68;101611.00;5029494;28;20397;-53
2022/06/20 08:11:54;;;;;;;5.97;1.70;;;;;;;18.40;54.77;101611.03;5033204;28;20176;-58
2022/06/20 08:14:47;;;;;;;8.57;1.80;;;;;;;18.54;56.41;101608.53;5032571;28;20029;-54
2022/06/20 08:17:13;;;;;;;5.18;1.65;;;;;;;18.57;52.84;101608.56;5033458;28;20525;-55
2022/06/20 08:19:42;;;;;;;6.82;1.98;;;;;;;18.70;53.82;101604.34;5033125;28;20543;-51
2022/06/20 08:22:26;;;;;;;8.18;2.10;;;;;;;18.83;55.76;101600.94;5029717;28;20025;-58
2022/06/20 08:25:01;;;;;;;5.72;1.50;;;;;;;18.96;54.29;101601.88;5035923;28;20037;-57
2022/06/20 08:27:46;;;;;;;6.80;1.88;;;;;;;19.08;54.44;101606.28;5031066;28;20778;-56
2022/06/20 08:30:20;;;;;;;3.95;1.45;;;;;;;19.01;52.64;101608.00;5011939;28;20033;-57
2022/06/20 08:33:31;;;;;;;5.80;2.08;;;;;;;18.98;53.36;101613.19;5022853;28;20363;-55
2022/06/20 08:36:03;;;;;;;6.35;1.65;;;;;;;18.82;52.25;101616.59;5028895;28;20044;-64
2022/06/20 08:38:38;;;;;;;8.77;2.25;;;;;;;18.76;54.07;101625.22;5031180;28;20075;-54
2022/06/20 08:41:03;;;;;;;9.38;2.00;;;;;;;18.71;54.02;101619.09;5032044;28;20370;-60
2022/06/20 08:43:42;;;;;;;7.35;1.95;;;;;;;18.66;54.34;101624.25;5034377;28;20156;-55
2022/06/20 08:46:08;;;;;;;;;;;;;;;18.79;54.30;101624.38;5030892;28;20718;-59
2022/06/20 08:48:42;;;;;;;6.50;1.83;;;;;;;18.63;53.44;101626.84;5028426;28;20373;-58
2022/06/20 08:51:10;;;;;;;4.53;1.63;;;;;;;18.73;51.80;101638.22;5034421;28;20444;-60
2022/06/20 08:54:13;;;;;;;6.20;1.70;;;;;;;18.87;52.94;101627.88;5031928;28;20029;-55
2022/06/20 08:57:00;;;;;;;6.07;1.70;;;;;;;18.93;53.97;101640.97;5029657;28;20080;-56
2022/06/20 08:59:43;;;;;;;7.13;1.85;;;;;;;18.89;53.67;101642.69;5029651;28;20021;-59
2022/06/20 09:02:30;;;;;;;5.13;1.70;;;;;;;19.10;54.67;101643.66;5030674;28;20037;-60
2022/06/20 09:05:33;;;;;;;6.75;1.85;;;;;;;19.19;53.71;101649.78;5030202;28;20494;-60
2022/06/20 09:08:10;;;;;;;4.93;2.00;;;;;;;19.13;52.87;101649.75;5036933;28;20183;-60
2022/06/20 09:11:01;;;;;;;4.45;1.75;;;;;;;19.06;51.34;101647.13;5033905;28;20432;-60
2022/06/20 09:14:11;;;;;;;4.32;1.80;;;;;;;19.07;50.80;101641.91;4991746;28;20515;-60
2022/06/20 09:17:02;;;;;;;6.20;1.67;;;;;;;19.22;50.17;101649.78;5039151;28;20489;-61
2022/06/20 09:19:37;;;;;;;6.03;2.00;;;;;;;19.36;50.36;101654.22;5027376;28;20436;-60
2022/06/20 09:22:11;;;;;;;5.22;1.98;;;;;;;19.39;49.41;101655.09;5033050;28;20440;-60
2022/06/20 09:24:50;;;;;;;7.30;1.98;;;;;;;19.37;47.98;101655.97;5034328;28;20113;-61
2022/06/20 09:27:21;;;;;;;5.72;1.75;;;;;;;19.42;49.36;101643.81;5029698;28;20739;-59
2022/06/20 09:30:04;;;;;;;6.57;2.35;;;;;;;19.49;49.78;101646.44;5029819;28;20029;-60
2022/06/20 09:32:56;;;;;;;9.85;2.50;;;;;;;19.37;48.85;101649.00;5031369;28;20044;-59
2022/06/20 09:36:00;;;;;;;5.93;2.20;;;;;;;19.45;50.78;101652.50;5027291;28;20994;-60
2022/06/20 09:38:38;;;;;;;7.32;2.35;;;;;;;19.56;49.80;101657.78;5017467;28;20036;-58
2022/06/20 09:41:27;;;;;;;6.68;2.28;;;;;;;19.57;49.29;101659.53;5035131;28;20116;-60
2022/06/20 09:44:14;;;;;;;8.55;2.20;;;;;;;19.63;48.25;101656.97;5027117;28;20056;-56
2022/06/20 09:47:01;;;;;;;7.47;2.15;;;;;;;19.74;48.58;101657.88;5025617;28;20026;-60
2022/06/20 09:49:45;;;;;;;9.00;2.25;;;;;;;19.82;49.55;101645.72;5025750;28;20035;-57
2022/06/20 09:52:36;;;;;;;7.85;2.00;;;;;;;19.97;49.98;101654.47;5026920;28;20025;-57
2022/06/20 09:55:15;;;;;;;8.98;2.72;;;;;;;20.04;48.80;101645.75;5030309;28;20025;-57
2022/06/20 09:58:07;;;;;;;6.15;2.28;;;;;;;20.13;48.42;101639.66;5022937;28;20028;-55
2022/06/20 10:00:51;;;;;;;7.35;2.33;;;;;;;20.33;47.95;101659.72;5029160;28;20541;-53
2022/06/20 10:03:44;;;;;;;7.68;2.22;;;;;;;20.47;47.80;101656.28;5029112;28;20021;-54
2022/06/20 10:06:29;;;;;;;7.72;2.20;;;;;;;20.52;48.07;101649.31;5027618;28;20045;-54
2022/06/20 10:09:11;;;;;;;8.23;2.60;;;;;;;20.45;48.18;101643.22;5034254;28;20389;-52
2022/06/20 10:11:59;;;;;;;12.85;3.28;;;;;;;20.42;48.92;101657.97;5008291;28;21116;-57
2022/06/20 10:14:40;;;;;;;8.50;2.85;;;;;;;20.42;47.02;101658.84;5009340;28;20052;-54
2022/06/20 10:17:38;;;;;;;7.53;2.28;;;;;;;20.57;46.62;101656.28;5024667;28;20029;-51
2022/06/20 10:20:16;;;;;;;7.75;2.40;;;;;;;20.75;47.33;101662.31;5003826;28;20489;-57
2022/06/20 10:22:48;;;;;;;7.85;2.65;;;;;;;20.62;46.86;101667.56;5024351;28;20093;-57
2022/06/20 10:25:28;;;;;;;8.82;2.30;;;;;;;20.65;47.80;101671.94;5029593;28;20477;-58
2022/06/20 10:28:16;;;;;;;10.85;3.00;;;;;;;20.68;48.03;101668.44;5030641;28;20036;-57
2022/06/20 10:30:49;;;;;;;8.30;2.22;;;;;;;20.76;47.08;101667.56;5027805;28;20500;-57
2022/06/20 10:33:48;;;;;;;8.55;2.42;;;;;;;20.89;47.13;101674.53;5030221;28;20060;-58
2022/06/20 10:36:28;;;;;;;9.30;2.55;;;;;;;20.88;45.14;101677.16;5031351;28;20029;-58
2022/06/20 10:39:15;;;;;;;9.52;2.33;;;;;;;20.97;45.64;101679.72;5025849;28;20022;-58
2022/06/20 10:42:11;;;;;;;8.77;2.35;;;;;;;21.09;46.59;101674.47;5028539;28;20025;-56
2022/06/20 10:44:58;;;;;;;5.72;2.33;;;;;;;21.22;46.00;101677.94;5027198;28;20083;-57
2022/06/20 10:47:36;;;;;;;7.97;2.50;;;;;;;21.28;44.56;101680.53;5029264;28;20036;-55
2022/06/20 10:50:15;;;;;;;8.40;2.25;;;;;;;21.08;44.54;101687.56;5027939;28;20512;-54
2022/06/20 10:52:51;;;;;;;9.68;2.38;;;;;;;21.01;45.48;101689.31;5014728;28;20025;-54
2022/06/20 10:55:29;;;;;;;8.32;2.47;;;;;;;20.86;46.57;101700.66;5024066;28;20112;-58
2022/06/20 10:58:15;;;;;;;10.85;2.50;;;;;;;20.97;44.85;101700.66;5026590;28;20040;-59
2022/06/20 11:00:58;;;;;;;8.15;1.95;;;;;;;21.24;45.68;101694.50;5026964;28;20053;-58
2022/06/20 11:03:48;;;;;;;9.77;2.20;;;;;;;21.32;44.94;101695.38;5025352;28;20029;-53
2022/06/20 11:06:25;;;;;;;4.88;2.10;;;;;;;21.40;43.90;101692.72;5028206;28;20099;-50
2022/06/20 11:09:08;;;;;;;6.22;2.03;;;;;;;21.40;45.93;101698.81;5033495;28;20021;-57
2022/06/20 11:12:06;;;;;;;6.90;2.08;;;;;;;21.39;45.63;101702.31;5031720;28;20499;-56
2022/06/20 11:14:50;;;;;;;6.65;2.42;;;;;;;21.29;45.43;101702.34;5029650;28;20052;-57
2022/06/20 11:17:30;;;;;;;9.13;2.17;;;;;;;21.28;45.63;101704.06;5029890;28;20078;-56
2022/06/20 11:20:14;;;;;;;6.75;2.20;;;;;;;21.29;44.90;101700.59;5025629;28;20772;-57
2022/06/20 11:23:18;;;;;;;6.57;2.20;;;;;;;21.29;45.31;101703.22;5024358;28;20120;-55
2022/06/20 11:25:55;;;;;;;9.20;2.10;;;;;;;21.16;44.80;101710.19;5026056;28;20045;-54
2022/06/20 11:28:42;;;;;;;8.40;2.53;;;;;;;21.26;45.32;101703.22;5034407;28;20072;-57
2022/06/20 11:31:43;;;;;;;7.50;2.08;;;;;;;21.27;45.69;101699.72;5026949;28;20038;-57
2022/06/20 11:34:30;;;;;;;6.60;1.90;;;;;;;21.30;45.10;101699.75;5029913;28;20028;-56
2022/06/20 11:36:55;;;;;;;7.38;2.10;;;;;;;21.39;44.45;101694.47;5022394;28;20033;-56
2022/06/20 11:39:52;;;;;;;6.15;1.90;;;;;;;21.49;44.91;101697.06;5027089;28;20044;-58
2022/06/20 11:42:58;;;;;;;6.15;2.10;;;;;;;21.44;44.20;101702.31;5028689;28;20571;-57
2022/06/20 11:45:41;;;;;;;8.55;2.00;;;;;;;21.24;43.12;101698.88;5031439;28;20029;-58
2022/06/20 11:48:35;;;;;;;9.88;1.60;;;;;;;21.35;44.59;101699.72;5030315;28;20425;-58
2022/06/20 11:51:17;;;;;;;9.57;2.22;;;;;;;21.42;44.27;101693.59;5030483;28;20703;-58
2022/06/20 11:54:03;;;;;;;7.32;2.05;;;;;;;21.51;44.11;101696.19;5027191;28;20409;-57
2022/06/20 11:56:48;;;;;;;5.00;2.03;;;;;;;21.47;42.85;101691.81;5026832;28;20049;-51
2022/06/20 11:59:21;;;;;;;6.85;2.10;;;;;;;21.35;42.75;101697.97;5026349;28;20549;-58
2022/06/20 12:01:51;;;;;;;10.55;2.05;;;;;;;21.33;43.07;101701.47;5029787;28;20029;-58
2022/06/20 12:04:16;;;;;;;6.55;2.00;;;;;;;21.29;41.90;101697.97;5025017;28;20029;-58
2022/06/20 12:06:51;;;;;;;9.00;1.90;;;;;;;21.41;43.00;101694.47;5027182;28;20048;-57
2022/06/20 12:09:43;;;;;;;6.88;2.00;;;;;;;21.44;42.71;101696.22;5028562;28;20037;-54
2022/06/20 12:12:44;;;;;;;5.78;1.98;;;;;;;21.30;41.38;101698.88;5029461;28;20554;-53
2022/06/20 12:15:32;;;;;;;6.82;1.80;;;;;;;21.29;42.24;101690.13;5023558;28;20040;-56